Varina, IA

18:29 CST le 31 janvier 2015 (GMT -0600)
Fort Dodge Regional | Change Station
CLOSE
Current Station
Aéroport
Location: Fort Dodge,
Altitude: 1165 ft
Stations météo à proximité
Avis météorologiques actifs: Winter Storm Warning

Alt. 1165 ft 42.55 °N, 94.19 °W | Updated 14 minutes ago

Neige
Neige
32 ° F
Paraît 32 ° F
N
0
Vent Variable Vent de Nord

Aujourd'hui
Haut(e) -- | Bas -- ° F
--% Risque de précip.
Hier
Haut(e) -- | Bas -- ° F
Precip. -- pouce
7:34 AM 5:31 PM
Lune gibbeuse croissante, 92% visible
Pression 30.03 pouce
Visibilité 1.8 Miles terrestres
Nuages Nuageux 400 ft
Couvert 900 ft
Point de rosée 30 ° F
Humidité 93%
Précipitations 0.24 pouce
Profondeur de la couche neigeuse Non disponible.
UV 0 sur 12
Pollen .10 sur 12
Qualité de l'air Non disponible.
Flu Activity Non disponible.
METAR KFOD 010015Z AUTO 00000KT 1 3/4SM BKN004 OVC009 00/M01 A3003 RMK AO1 P0001

More Conditions Fewer Conditions

Pression 30.03 pouce
Visibilité 1.8 Miles terrestres
Nuages Nuageux 400 ft
Couvert 900 ft
Point de rosée 30 ° F
Humidité 93%
Précipitations 0.24 pouce
Profondeur de la couche neigeuse Non disponible.
UV 0 sur 12
Pollen .10 sur 12
Qualité de l'air Non disponible.
Flu Activity Non disponible.
METAR KFOD 010015Z AUTO 00000KT 1 3/4SM BKN004 OVC009 00/M01 A3003 RMK AO1 P0001

More Conditions Fewer Conditions

10-Day Weather Forecast

Almanac

Astronomie

Jan. 31, 2015 Lever Coucher
Temps réel
Crépuscule civil
Crépuscule nautique
Crépuscule astronomique
Lune
Durée de lumière visible
Longueur du jour
Tomorrow will be .
, % of the Moon is Illuminated

Extrêmes aujourd'hui

State Highs State Lows

Community

WunderPhotos

Upload Photos

1,792,255 Photos téléchargées !

WunderBlogs® & News

Nearby

Qualité de l'air

  Qualité de l'air Indice de la qualité de l'air Polluant
Not available.

Épaisseur de neige

Station Depth Altitude

Activité sismique

Ville Distance Mag. Time & Date
Minimum magnitude displayed is 2.5.

Températures des eaux côtières

Lieu Température

Stations météo à proximité